createdAt,value
2017-10-03T00:00:12.828Z,93.74
2017-10-03T00:01:12.804Z,93.93
2017-10-03T00:02:12.784Z,93.74
2017-10-03T00:03:12.768Z,93.55
2017-10-03T00:04:12.743Z,93.55
2017-10-03T00:05:12.723Z,93.26
2017-10-03T00:06:12.700Z,93.45
2017-10-03T00:07:12.677Z,93.07
2017-10-03T00:08:12.652Z,94.02
2017-10-03T00:09:12.631Z,93.84
2017-10-03T00:10:12.604Z,93.74
2017-10-03T00:11:12.586Z,94.02
2017-10-03T00:12:12.564Z,93.88
2017-10-03T00:13:12.541Z,94.31
2017-10-03T00:14:12.519Z,94.27
2017-10-03T00:15:12.494Z,94.07
2017-10-03T00:16:12.475Z,93.79
2017-10-03T00:17:12.452Z,94.07
2017-10-03T00:18:12.458Z,93.79
2017-10-03T00:19:12.405Z,94.07
2017-10-03T00:20:12.386Z,93.88
2017-10-03T00:21:12.358Z,93.7
2017-10-03T00:22:12.342Z,93.7
2017-10-03T00:23:12.320Z,93.79
2017-10-03T00:24:12.299Z,93.98
2017-10-03T00:25:12.269Z,93.79
2017-10-03T00:26:12.297Z,93.7
2017-10-03T00:27:12.223Z,93.98
2017-10-03T00:28:12.204Z,93.98
2017-10-03T00:29:12.185Z,93.79
2017-10-03T00:30:12.166Z,94.07
2017-10-03T00:31:12.140Z,94.17
2017-10-03T00:32:12.119Z,93.88
2017-10-03T00:33:12.093Z,94.17
2017-10-03T00:34:12.071Z,93.79
2017-10-03T00:35:12.053Z,94.17
2017-10-03T00:36:12.034Z,94.17
2017-10-03T00:37:12.011Z,94.17
2017-10-03T00:38:11.682Z,94.17
2017-10-03T00:39:11.967Z,94.07
2017-10-03T00:40:11.936Z,93.88
2017-10-03T00:41:11.916Z,94.12
2017-10-03T00:42:11.891Z,94.36
2017-10-03T00:43:11.873Z,93.7
2017-10-03T00:44:11.849Z,94.03
2017-10-03T00:45:11.834Z,93.65
2017-10-03T00:46:11.812Z,93.98
2017-10-03T00:47:11.791Z,94.07
2017-10-03T00:48:11.779Z,93.88
2017-10-03T00:49:11.448Z,93.65
2017-10-03T00:50:11.717Z,93.88
2017-10-03T00:51:11.688Z,94.17
2017-10-03T00:52:11.677Z,93.98
2017-10-03T00:53:11.652Z,94.17
2017-10-03T00:54:11.631Z,93.98
2017-10-03T00:55:11.293Z,94.07
2017-10-03T00:56:11.586Z,94.03
2017-10-03T00:57:11.564Z,94.27
2017-10-03T00:58:11.530Z,93.7
2017-10-03T00:59:11.510Z,93.74
2017-10-03T01:00:11.489Z,93.79
2017-10-03T01:01:11.477Z,93.93
2017-10-03T01:02:11.449Z,93.93
2017-10-03T01:03:11.418Z,94.41
2017-10-03T01:04:11.407Z,93.65
2017-10-03T01:05:11.379Z,94.31
2017-10-03T01:06:11.353Z,94.36
2017-10-03T01:07:11.333Z,93.74
2017-10-03T01:08:11.310Z,94.41
2017-10-03T01:09:11.287Z,94.41
2017-10-03T01:10:11.270Z,94.51
2017-10-03T01:11:11.242Z,94.51
2017-10-03T01:12:11.223Z,94.6
2017-10-03T01:13:11.195Z,94.51
2017-10-03T01:14:11.172Z,94.41
2017-10-03T01:15:11.153Z,94.51
2017-10-03T01:16:11.136Z,94.22
2017-10-03T01:17:11.104Z,94.22
2017-10-03T01:18:11.086Z,94.31
2017-10-03T01:19:10.758Z,94.03
2017-10-03T01:20:11.045Z,94.22
2017-10-03T01:21:11.070Z,94.22
2017-10-03T01:22:10.997Z,94.12
2017-10-03T01:23:10.973Z,94.31
2017-10-03T01:24:10.952Z,94.31
2017-10-03T01:25:10.933Z,94.07
2017-10-03T01:26:10.910Z,94.31
2017-10-03T01:27:10.882Z,93.93
2017-10-03T01:28:10.860Z,93.93
2017-10-03T01:29:10.841Z,94.12
2017-10-03T01:30:10.819Z,94.12
2017-10-03T01:31:10.792Z,94.12
2017-10-03T01:32:10.462Z,94.22
2017-10-03T01:33:10.753Z,94.12
2017-10-03T01:34:10.726Z,93.84
2017-10-03T01:35:10.705Z,93.84
2017-10-03T01:36:10.686Z,93.93
2017-10-03T01:37:10.658Z,94.12
2017-10-03T01:38:10.646Z,93.88
2017-10-03T01:39:10.624Z,94.17
2017-10-03T01:40:10.597Z,94.12
2017-10-03T01:41:10.568Z,93.98
2017-10-03T01:42:10.555Z,94.17
2017-10-03T01:43:10.576Z,93.93
2017-10-03T01:44:10.504Z,93.84
2017-10-03T01:45:10.485Z,93.84
2017-10-03T01:46:10.469Z,94.07
2017-10-03T01:47:10.438Z,93.98
2017-10-03T01:48:10.412Z,93.98
2017-10-03T01:49:10.389Z,93.98
2017-10-03T01:50:10.113Z,93.79
2017-10-03T01:51:10.348Z,94.07
2017-10-03T01:52:10.326Z,94.07
2017-10-03T01:53:10.306Z,94.07
2017-10-03T01:54:10.285Z,93.98
2017-10-03T01:55:10.264Z,93.98
2017-10-03T01:56:10.242Z,94.17
2017-10-03T01:57:10.214Z,94.27
2017-10-03T01:58:10.193Z,93.98
2017-10-03T01:59:10.162Z,94.27
2017-10-03T02:00:10.148Z,94.17
2017-10-03T02:01:10.139Z,93.88
2017-10-03T02:02:10.100Z,94.07
2017-10-03T02:03:10.077Z,94.27
2017-10-03T02:04:10.055Z,94.07
2017-10-03T02:05:10.032Z,93.98
2017-10-03T02:06:10.014Z,93.98
2017-10-03T02:07:09.986Z,94.17
2017-10-03T02:08:09.658Z,94.07
2017-10-03T02:09:09.941Z,93.98
2017-10-03T02:10:09.924Z,94.27
2017-10-03T02:11:09.905Z,94.07
2017-10-03T02:12:09.882Z,93.98
2017-10-03T02:13:09.853Z,94.03
2017-10-03T02:14:09.836Z,94.07
2017-10-03T02:15:09.810Z,94.12
2017-10-03T02:16:09.795Z,93.65
2017-10-03T02:17:09.765Z,94.36
2017-10-03T02:18:09.739Z,94.27
2017-10-03T02:19:09.723Z,94.31
2017-10-03T02:20:09.698Z,94.31
2017-10-03T02:21:09.369Z,94.12
2017-10-03T02:22:09.652Z,94.22
2017-10-03T02:23:09.638Z,94.31
2017-10-03T02:24:09.607Z,94.51
2017-10-03T02:25:09.587Z,94.41
2017-10-03T02:26:09.561Z,94.31
2017-10-03T02:27:09.540Z,94.51
2017-10-03T02:28:09.523Z,94.31
2017-10-03T02:29:09.509Z,94.51
2017-10-03T02:30:09.475Z,94.31
2017-10-03T02:31:09.448Z,94.31
2017-10-03T02:32:09.430Z,94.22
2017-10-03T02:33:09.404Z,94.6
2017-10-03T02:34:09.377Z,94.6
2017-10-03T02:35:09.360Z,94.6
2017-10-03T02:36:09.342Z,94.7
2017-10-03T02:37:09.317Z,94.7
2017-10-03T02:38:09.292Z,94.51
2017-10-03T02:39:09.275Z,94.51
2017-10-03T02:40:09.305Z,94.7
2017-10-03T02:41:09.227Z,94.89
2017-10-03T02:42:09.206Z,94.7
2017-10-03T02:43:09.182Z,94.7
2017-10-03T02:44:08.847Z,94.51
2017-10-03T02:45:09.134Z,94.51
2017-10-03T02:46:09.111Z,94.51
2017-10-03T02:47:09.091Z,94.51
2017-10-03T02:48:09.070Z,94.12
2017-10-03T02:49:09.044Z,94.79
2017-10-03T02:50:09.027Z,95.08
2017-10-03T02:51:09.000Z,94.89
2017-10-03T02:52:08.979Z,94.65
2017-10-03T02:53:08.953Z,93.98
2017-10-03T02:54:08.935Z,94.74
2017-10-03T02:55:08.909Z,94.27
2017-10-03T02:56:08.885Z,94.93
2017-10-03T02:57:08.869Z,94.84
2017-10-03T02:58:08.844Z,94.65
2017-10-03T02:59:08.818Z,94.93
2017-10-03T03:00:08.796Z,94.93
2017-10-03T03:01:08.774Z,94.36
2017-10-03T03:02:08.760Z,95.03
2017-10-03T03:03:08.733Z,94.93
2017-10-03T03:04:08.710Z,94.46
2017-10-03T03:05:08.681Z,94.46
2017-10-03T03:06:08.669Z,94.65
2017-10-03T03:07:08.647Z,94.36
2017-10-03T03:08:08.619Z,94.65
2017-10-03T03:09:08.641Z,94.74
2017-10-03T03:10:08.273Z,94.74
2017-10-03T03:11:08.550Z,94.74
2017-10-03T03:12:08.529Z,94.74
2017-10-03T03:13:08.502Z,95.12
2017-10-03T03:14:08.479Z,95.41
2017-10-03T03:15:08.456Z,95.41
2017-10-03T03:16:08.434Z,95.22
2017-10-03T03:17:08.409Z,95.32
2017-10-03T03:18:08.404Z,95.03
2017-10-03T03:19:08.392Z,95.12
2017-10-03T03:20:08.347Z,95.12
2017-10-03T03:21:08.330Z,94.74
2017-10-03T03:22:08.301Z,94.84
2017-10-03T03:23:08.276Z,95.12
2017-10-03T03:24:08.262Z,95.03
2017-10-03T03:25:08.229Z,95.12
2017-10-03T03:26:08.214Z,94.74
2017-10-03T03:27:08.185Z,94.74
2017-10-03T03:28:08.220Z,94.84
2017-10-03T03:29:08.138Z,94.74
2017-10-03T03:30:08.118Z,94.65
2017-10-03T03:31:08.104Z,94.93
2017-10-03T03:32:08.073Z,94.84
2017-10-03T03:33:08.049Z,95.22
2017-10-03T03:34:07.722Z,95.08
2017-10-03T03:35:08.010Z,95.22
2017-10-03T03:36:07.982Z,95.12
2017-10-03T03:37:07.964Z,95.17
2017-10-03T03:38:07.937Z,95.32
2017-10-03T03:39:07.913Z,94.79
2017-10-03T03:40:07.892Z,94.79
2017-10-03T03:41:07.870Z,94.93
2017-10-03T03:42:07.846Z,95.41
2017-10-03T03:43:07.829Z,95.22
2017-10-03T03:44:07.803Z,95.08
2017-10-03T03:45:07.779Z,95.17
2017-10-03T03:46:07.759Z,95.32
2017-10-03T03:47:07.732Z,94.89
2017-10-03T03:48:07.410Z,95.17
2017-10-03T03:49:07.686Z,94.89
2017-10-03T03:50:07.664Z,95.17
2017-10-03T03:51:07.641Z,95.17
2017-10-03T03:52:07.313Z,95.03
2017-10-03T03:53:07.597Z,95.03
2017-10-03T03:54:07.624Z,94.89
2017-10-03T03:55:07.550Z,94.98
2017-10-03T03:56:07.527Z,95.22
2017-10-03T03:57:07.505Z,94.98
2017-10-03T03:58:07.482Z,94.89
2017-10-03T03:59:07.462Z,95.08
2017-10-03T04:00:07.434Z,94.98
2017-10-03T04:01:07.417Z,95.08
2017-10-03T04:02:07.394Z,94.98
2017-10-03T04:03:07.372Z,94.89
2017-10-03T04:04:07.405Z,94.7
2017-10-03T04:05:07.324Z,94.7
2017-10-03T04:06:07.303Z,94.7
2017-10-03T04:07:07.281Z,94.98
2017-10-03T04:08:07.262Z,95.17
2017-10-03T04:09:07.232Z,95.65
2017-10-03T04:10:07.216Z,95.84
2017-10-03T04:11:07.189Z,95.17
2017-10-03T04:12:07.169Z,95.75
2017-10-03T04:13:07.143Z,95.56
2017-10-03T04:14:07.119Z,95.84
2017-10-03T04:15:07.094Z,95.56
2017-10-03T04:16:07.071Z,95.56
2017-10-03T04:17:07.050Z,95.37
2017-10-03T04:18:07.028Z,95.46
2017-10-03T04:19:07.003Z,95.27
2017-10-03T04:20:06.983Z,95.27
2017-10-03T04:21:06.958Z,95.51
2017-10-03T04:22:06.937Z,95.56
2017-10-03T04:23:06.914Z,95.7
2017-10-03T04:24:06.887Z,95.75
2017-10-03T04:25:06.873Z,95.51
2017-10-03T04:26:06.862Z,95.32
2017-10-03T04:27:06.824Z,95.7
2017-10-03T04:28:06.810Z,95.61
2017-10-03T04:29:06.777Z,95.61
2017-10-03T04:30:06.760Z,95.7
2017-10-03T04:31:06.732Z,95.51
2017-10-03T04:32:06.715Z,95.61
2017-10-03T04:33:06.692Z,95.61
2017-10-03T04:34:06.665Z,95.7
2017-10-03T04:35:06.645Z,95.41
2017-10-03T04:36:06.621Z,95.7
2017-10-03T04:37:06.296Z,95.61
2017-10-03T04:38:06.574Z,95.98
2017-10-03T04:39:06.547Z,95.03
2017-10-03T04:40:06.537Z,95.03
2017-10-03T04:41:06.514Z,94.65
2017-10-03T04:42:06.175Z,95.22
2017-10-03T04:43:06.462Z,95.41
2017-10-03T04:44:06.438Z,95.22
2017-10-03T04:45:06.420Z,95.22
2017-10-03T04:46:06.394Z,95.32
2017-10-03T04:47:06.376Z,94.84
2017-10-03T04:48:06.350Z,95.32
2017-10-03T04:49:06.323Z,94.84
2017-10-03T04:50:06.303Z,94.93
2017-10-03T04:51:06.280Z,94.74
2017-10-03T04:52:06.259Z,94.65
2017-10-03T04:53:05.926Z,94.93
2017-10-03T04:54:06.214Z,94.74
2017-10-03T04:55:06.188Z,94.84
2017-10-03T04:56:06.172Z,94.93
2017-10-03T04:57:06.143Z,94.74
2017-10-03T04:58:06.170Z,95.22
2017-10-03T04:59:06.100Z,94.74
2017-10-03T05:00:06.087Z,94.74
2017-10-03T05:01:06.055Z,94.93
2017-10-03T05:02:06.035Z,94.93
2017-10-03T05:03:06.005Z,94.93
2017-10-03T05:04:05.980Z,94.93
2017-10-03T05:05:05.961Z,94.93
2017-10-03T05:06:05.942Z,94.84
2017-10-03T05:07:05.921Z,94.93
2017-10-03T05:08:05.900Z,94.93
2017-10-03T05:09:05.882Z,94.93
2017-10-03T05:10:05.856Z,95.22
2017-10-03T05:11:05.830Z,95.12
2017-10-03T05:12:05.809Z,95.03
2017-10-03T05:13:05.781Z,95.03
2017-10-03T05:14:05.455Z,94.93
2017-10-03T05:15:05.743Z,94.93
2017-10-03T05:16:05.718Z,95.03
2017-10-03T05:17:05.695Z,94.93
2017-10-03T05:18:05.677Z,95.22
2017-10-03T05:19:05.704Z,95.03
2017-10-03T05:20:05.625Z,95.12
2017-10-03T05:21:05.606Z,95.03
2017-10-03T05:22:05.585Z,95.12
2017-10-03T05:23:05.568Z,95.12
2017-10-03T05:24:05.536Z,95.12
2017-10-03T05:25:05.517Z,95.03
2017-10-03T05:26:05.499Z,95.03
2017-10-03T05:27:05.470Z,95.03
2017-10-03T05:28:05.445Z,95.22
2017-10-03T05:29:05.420Z,94.84
2017-10-03T05:30:05.403Z,95.03
2017-10-03T05:31:05.375Z,95.22
2017-10-03T05:32:05.364Z,95.03
2017-10-03T05:33:05.334Z,95.12
2017-10-03T05:34:05.306Z,95.22
2017-10-03T05:35:05.297Z,95.12
2017-10-03T05:36:05.266Z,95.22
2017-10-03T05:37:05.245Z,95.22
2017-10-03T05:38:05.217Z,95.41
2017-10-03T05:39:05.195Z,95.22
2017-10-03T05:40:05.174Z,95.32
2017-10-03T05:41:05.157Z,95.12
2017-10-03T05:42:05.130Z,95.41
2017-10-03T05:43:05.114Z,95.32
2017-10-03T05:44:05.084Z,95.61
2017-10-03T05:45:05.065Z,95.22
2017-10-03T05:46:05.047Z,95.12
2017-10-03T05:47:05.023Z,94.84
2017-10-03T05:48:05.002Z,94.98
2017-10-03T05:49:04.979Z,94.98
2017-10-03T05:50:04.958Z,95.22
2017-10-03T05:51:04.926Z,94.74
2017-10-03T05:52:04.904Z,94.79
2017-10-03T05:53:04.885Z,94.84
2017-10-03T05:54:04.860Z,95.03
2017-10-03T05:55:04.528Z,94.74
2017-10-03T05:56:04.816Z,94.84
2017-10-03T05:57:04.790Z,94.89
2017-10-03T05:58:04.771Z,94.89
2017-10-03T05:59:04.750Z,94.79
2017-10-03T06:00:04.722Z,94.79
2017-10-03T06:01:04.709Z,94.79
2017-10-03T06:02:04.678Z,94.98
2017-10-03T06:03:04.657Z,94.89
2017-10-03T06:04:04.640Z,94.7
2017-10-03T06:05:04.611Z,95.08
2017-10-03T06:06:04.282Z,94.89
2017-10-03T06:07:04.567Z,95.27
2017-10-03T06:08:04.555Z,94.98
2017-10-03T06:09:04.529Z,95.27
2017-10-03T06:10:04.497Z,95.36
2017-10-03T06:11:04.477Z,95.08
2017-10-03T06:12:04.456Z,95.08
2017-10-03T06:13:04.438Z,95.17
2017-10-03T06:14:04.416Z,95.27
2017-10-03T06:15:04.401Z,95.27
2017-10-03T06:16:04.366Z,94.89
2017-10-03T06:17:04.343Z,95.27
2017-10-03T06:18:04.323Z,95.36
2017-10-03T06:19:04.301Z,95.08
2017-10-03T06:20:04.282Z,95.08
2017-10-03T06:21:04.257Z,95.36
2017-10-03T06:22:04.232Z,94.89
2017-10-03T06:23:04.209Z,94.89
2017-10-03T06:24:04.208Z,94.89
2017-10-03T06:25:04.158Z,94.79
2017-10-03T06:26:04.146Z,94.98
2017-10-03T06:27:04.117Z,95.08
2017-10-03T06:28:04.095Z,94.65
2017-10-03T06:29:04.077Z,94.74
2017-10-03T06:30:04.056Z,94.89
2017-10-03T06:31:04.036Z,94.98
2017-10-03T06:32:04.007Z,94.6
2017-10-03T06:33:03.988Z,94.6
2017-10-03T06:34:03.967Z,94.65
2017-10-03T06:35:03.939Z,94.36
2017-10-03T06:36:03.927Z,94.12
2017-10-03T06:37:03.906Z,94.02
2017-10-03T06:38:03.880Z,94.31
2017-10-03T06:39:03.851Z,94.45
2017-10-03T06:40:03.829Z,94.26
2017-10-03T06:41:03.820Z,94.84
2017-10-03T06:42:03.790Z,94.21
2017-10-03T06:43:03.473Z,94.5
2017-10-03T06:44:03.753Z,94.02
2017-10-03T06:45:03.731Z,94.4
2017-10-03T06:46:03.709Z,93.83
2017-10-03T06:47:03.707Z,93.69
2017-10-03T06:48:03.659Z,94.17
2017-10-03T06:49:03.643Z,93.59
2017-10-03T06:50:03.618Z,93.54
2017-10-03T06:51:03.299Z,93.26
2017-10-03T06:52:03.589Z,93.68
2017-10-03T06:53:03.574Z,93.68
2017-10-03T06:54:03.541Z,92.82
2017-10-03T06:55:03.521Z,92.96
2017-10-03T06:56:03.504Z,92.96
2017-10-03T06:57:03.472Z,92
2017-10-03T06:58:03.461Z,92.24
2017-10-03T06:59:03.455Z,92.05
2017-10-03T07:00:03.113Z,90.99
2017-10-03T07:01:03.404Z,90.84
2017-10-03T07:02:03.393Z,90.66
2017-10-03T07:03:03.368Z,91.04
2017-10-03T07:04:03.345Z,89.83
2017-10-03T07:05:03.324Z,89.83
2017-10-03T07:06:03.311Z,88.92
2017-10-03T07:07:03.285Z,89.21
2017-10-03T07:08:03.266Z,88.73
2017-10-03T07:09:03.248Z,87.67
2017-10-03T07:10:03.234Z,87.62
2017-10-03T07:11:03.213Z,88.68
2017-10-03T07:12:03.197Z,88.01
2017-10-03T07:13:03.180Z,87.68
2017-10-03T07:14:03.162Z,88.25
2017-10-03T07:15:03.154Z,87.73
2017-10-03T07:16:03.120Z,88.11
2017-10-03T07:17:03.101Z,88.84
2017-10-03T07:18:03.081Z,88.89
2017-10-03T07:19:03.060Z,89.18
2017-10-03T07:20:03.060Z,89.42
2017-10-03T07:21:03.024Z,89.71
2017-10-03T07:22:03.012Z,89.8
2017-10-03T07:23:02.983Z,89.9
2017-10-03T07:24:02.962Z,89.76
2017-10-03T07:25:02.949Z,90.23
2017-10-03T07:26:02.953Z,90.76
2017-10-03T07:27:02.906Z,91.05
2017-10-03T07:28:02.888Z,90.23
2017-10-03T07:29:02.870Z,89.7
2017-10-03T07:30:02.849Z,89.94
2017-10-03T07:31:02.831Z,89.17
2017-10-03T07:32:02.812Z,88.79
2017-10-03T07:33:02.803Z,88.98
2017-10-03T07:34:02.764Z,88.69
2017-10-03T07:35:02.755Z,88.98
2017-10-03T07:36:02.736Z,88.55
2017-10-03T07:37:02.711Z,88.93
2017-10-03T07:38:02.699Z,88.93
2017-10-03T07:39:02.678Z,89.22
2017-10-03T07:40:02.656Z,89.03
2017-10-03T07:41:02.635Z,88.49
2017-10-03T07:42:02.617Z,88.59
2017-10-03T07:43:02.598Z,88.88
2017-10-03T07:44:02.639Z,88.69
2017-10-03T07:45:02.562Z,88.55
2017-10-03T07:46:02.547Z,88.74
2017-10-03T07:47:02.524Z,88.41
2017-10-03T07:48:02.501Z,88.98
2017-10-03T07:49:02.480Z,89.13
2017-10-03T07:50:02.464Z,89.42
2017-10-03T07:51:02.439Z,89.86
2017-10-03T07:52:02.423Z,90.14
2017-10-03T07:53:02.401Z,89.62
2017-10-03T07:54:02.386Z,90.58
2017-10-03T07:55:02.359Z,90.48
2017-10-03T07:56:02.341Z,90.86
2017-10-03T07:57:02.017Z,90.82
2017-10-03T07:58:02.301Z,90.91
2017-10-03T07:59:02.283Z,90.91
2017-10-03T08:00:02.263Z,90.91
2017-10-03T08:01:02.241Z,91.11
2017-10-03T08:02:02.218Z,91.77
2017-10-03T08:03:02.199Z,91.77
2017-10-03T08:04:02.176Z,91.3
2017-10-03T08:05:02.158Z,91.58
2017-10-03T08:06:02.146Z,91.87
2017-10-03T08:07:02.114Z,91.87
2017-10-03T08:08:02.091Z,91.77
2017-10-03T08:09:02.082Z,92.16
2017-10-03T08:10:02.053Z,91.92
2017-10-03T08:11:02.039Z,92.25
2017-10-03T08:12:02.012Z,92.3
2017-10-03T08:13:01.986Z,92.11
2017-10-03T08:14:01.965Z,92.3
2017-10-03T08:15:01.950Z,92.69
2017-10-03T08:16:01.922Z,92.88
2017-10-03T08:17:01.912Z,92.59
2017-10-03T08:18:01.886Z,92.88
2017-10-03T08:19:01.867Z,92.59
2017-10-03T08:20:01.842Z,92.49
2017-10-03T08:21:01.834Z,92.59
2017-10-03T08:22:01.811Z,92.3
2017-10-03T08:23:01.786Z,92.49
2017-10-03T08:24:01.758Z,92.54
2017-10-03T08:25:01.740Z,92.4
2017-10-03T08:26:01.721Z,92.3
2017-10-03T08:27:01.702Z,92.88
2017-10-03T08:28:01.684Z,92.49
2017-10-03T08:29:01.650Z,92.4
2017-10-03T08:30:01.633Z,92.92
2017-10-03T08:31:01.617Z,92.54
2017-10-03T08:32:01.592Z,92.44
2017-10-03T08:33:01.576Z,92.73
2017-10-03T08:34:01.553Z,92.54
2017-10-03T08:35:01.539Z,92.73
2017-10-03T08:36:01.504Z,92.54
2017-10-03T08:37:01.496Z,92.63
2017-10-03T08:38:01.464Z,92.63
2017-10-03T08:39:01.442Z,92.63
2017-10-03T08:40:01.426Z,92.73
2017-10-03T08:41:01.405Z,92.63
2017-10-03T08:42:01.383Z,92.44
2017-10-03T08:43:01.352Z,92.44
2017-10-03T08:44:01.343Z,92.63
2017-10-03T08:45:01.314Z,92.73
2017-10-03T08:46:01.298Z,92.83
2017-10-03T08:47:01.270Z,92.83
2017-10-03T08:48:00.948Z,92.25
2017-10-03T08:49:01.229Z,92.92
2017-10-03T08:50:00.910Z,91.63
2017-10-03T08:51:01.191Z,92.01
2017-10-03T08:52:01.178Z,91.24
2017-10-03T08:53:01.202Z,90.99
2017-10-03T08:54:01.132Z,90.31
2017-10-03T08:55:01.110Z,89.3
2017-10-03T08:56:01.092Z,87.96
2017-10-03T08:57:00.770Z,87.96
2017-10-03T08:58:01.052Z,87.92
2017-10-03T08:59:01.038Z,87.82
2017-10-03T09:00:01.012Z,87.62
2017-10-03T09:01:01.002Z,87.53
2017-10-03T09:02:00.979Z,86.91
2017-10-03T09:03:00.972Z,87.29
2017-10-03T09:04:00.940Z,87.29
2017-10-03T09:05:00.925Z,87.25
2017-10-03T09:06:00.905Z,87.63
2017-10-03T09:07:00.579Z,88.11
2017-10-03T09:08:00.862Z,88.07
2017-10-03T09:09:00.845Z,87.98
2017-10-03T09:10:00.836Z,87.88
2017-10-03T09:11:00.812Z,88.74
2017-10-03T09:12:00.793Z,88.7
2017-10-03T09:13:00.766Z,88.98
2017-10-03T09:14:00.765Z,88.89
2017-10-03T09:15:00.730Z,88.7
2017-10-03T09:16:00.714Z,89.23
2017-10-03T09:17:00.699Z,89.42
2017-10-03T09:18:00.718Z,89.23
2017-10-03T09:19:00.649Z,89.23
2017-10-03T09:20:00.322Z,89.13
2017-10-03T09:21:00.660Z,89.23
2017-10-03T09:22:00.594Z,89.65
2017-10-03T09:23:00.570Z,89.37
2017-10-03T09:24:00.552Z,88.89
2017-10-03T09:25:00.527Z,89.22
2017-10-03T09:26:00.506Z,88.88
2017-10-03T09:27:00.490Z,88.25
2017-10-03T09:28:00.476Z,87.34
2017-10-03T09:29:00.462Z,86.71
2017-10-03T09:30:00.432Z,86.18
2017-10-03T09:31:00.117Z,86.38
2017-10-03T09:32:00.401Z,86.28
2017-10-03T09:33:00.380Z,85.55
2017-10-03T09:34:00.357Z,84.83
2017-10-03T09:35:00.340Z,84.34
2017-10-03T09:36:00.334Z,84.44
2017-10-03T09:37:00.303Z,83.96
2017-10-03T09:38:00.285Z,83.19
2017-10-03T09:39:00.271Z,83.48
2017-10-03T09:40:00.256Z,83.09
2017-10-03T09:41:00.229Z,82.67
2017-10-03T09:42:00.216Z,83.53
2017-10-03T09:43:00.205Z,83.44
2017-10-03T09:44:00.174Z,83.4
2017-10-03T09:45:00.168Z,83.69
2017-10-03T09:46:00.142Z,83.59
2017-10-03T09:47:00.126Z,83.36
2017-10-03T09:48:00.107Z,83.84
2017-10-03T09:49:00.080Z,84.22
2017-10-03T09:50:00.063Z,83.36
2017-10-03T09:51:00.051Z,83.36
2017-10-03T09:52:00.030Z,83.45
2017-10-03T09:53:00.060Z,84.08
2017-10-03T09:54:00.004Z,84.27
2017-10-03T09:54:59.979Z,84.37
2017-10-03T09:55:59.955Z,84.18
2017-10-03T09:56:59.936Z,84.27
2017-10-03T09:57:59.913Z,84.14
2017-10-03T09:58:59.902Z,84.14
2017-10-03T09:59:59.881Z,83.94
2017-10-03T10:00:59.863Z,84.04
2017-10-03T10:01:59.836Z,84.52
2017-10-03T10:02:59.832Z,85.1
2017-10-03T10:03:59.803Z,84.33
2017-10-03T10:04:59.781Z,84.61
2017-10-03T10:05:59.775Z,84.61
2017-10-03T10:06:59.740Z,84.77
2017-10-03T10:07:59.719Z,84.33
2017-10-03T10:08:59.714Z,85.05
2017-10-03T10:09:59.681Z,84.48
2017-10-03T10:10:59.664Z,84.95
2017-10-03T10:11:59.646Z,84.67
2017-10-03T10:12:59.626Z,85.25
2017-10-03T10:13:59.604Z,85
2017-10-03T10:14:59.584Z,85
2017-10-03T10:15:59.561Z,85.38
2017-10-03T10:16:59.546Z,84.71
2017-10-03T10:17:59.524Z,84.04
2017-10-03T10:18:59.505Z,84.14
2017-10-03T10:19:59.482Z,84.09
2017-10-03T10:20:59.470Z,83.91
2017-10-03T10:21:59.448Z,84.67
2017-10-03T10:22:59.421Z,84.48
2017-10-03T10:23:59.416Z,84.38
2017-10-03T10:24:59.385Z,84.82
2017-10-03T10:25:59.363Z,84.91
2017-10-03T10:26:59.343Z,84.82
2017-10-03T10:27:59.328Z,84.91
2017-10-03T10:28:58.998Z,84.91
2017-10-03T10:29:59.280Z,84.95
2017-10-03T10:30:59.263Z,84.95
2017-10-03T10:31:59.240Z,84.86
2017-10-03T10:32:59.219Z,84.48
2017-10-03T10:33:59.213Z,84.48
2017-10-03T10:34:59.199Z,84.19
2017-10-03T10:35:59.163Z,84.58
2017-10-03T10:36:59.146Z,84.77
2017-10-03T10:37:59.130Z,84.95
2017-10-03T10:38:59.112Z,85.05
2017-10-03T10:39:59.078Z,84.77
2017-10-03T10:40:59.063Z,84.95
2017-10-03T10:41:59.052Z,84.95
2017-10-03T10:42:59.021Z,84.09
2017-10-03T10:43:59.012Z,84.09
2017-10-03T10:44:59.033Z,84.38
2017-10-03T10:45:58.963Z,84.67
2017-10-03T10:46:58.944Z,84.77
2017-10-03T10:47:58.921Z,84.95
2017-10-03T10:48:58.905Z,85.25
2017-10-03T10:49:58.881Z,84.58
2017-10-03T10:50:58.854Z,84.95
2017-10-03T10:51:58.833Z,85.01
2017-10-03T10:52:58.820Z,84.91
2017-10-03T10:53:58.794Z,84.95
2017-10-03T10:54:58.470Z,84.72
2017-10-03T10:55:58.830Z,84.82
2017-10-03T10:56:58.730Z,85.11
2017-10-03T10:57:58.712Z,84.72
2017-10-03T10:58:58.699Z,84.05
2017-10-03T10:59:58.673Z,84.82
2017-10-03T11:00:58.652Z,85.01
2017-10-03T11:01:58.635Z,84.63
2017-10-03T11:02:58.303Z,84.44
2017-10-03T11:03:58.589Z,84.82
2017-10-03T11:04:58.568Z,84.25
2017-10-03T11:05:58.549Z,84
2017-10-03T11:06:58.217Z,84.05
2017-10-03T11:07:58.506Z,83.95
2017-10-03T11:08:58.491Z,84.15
2017-10-03T11:09:58.466Z,83.95
2017-10-03T11:10:58.446Z,83
2017-10-03T11:11:58.426Z,83
2017-10-03T11:12:58.426Z,83.38
2017-10-03T11:13:58.391Z,83.38
2017-10-03T11:14:58.364Z,83.19
2017-10-03T11:15:58.364Z,83.09
2017-10-03T11:16:58.329Z,83.09
2017-10-03T11:17:58.302Z,83
2017-10-03T11:18:58.286Z,82.52
2017-10-03T11:19:58.256Z,82.56
2017-10-03T11:20:58.241Z,83.33
2017-10-03T11:21:58.226Z,82.65
2017-10-03T11:22:58.214Z,82.27
2017-10-03T11:23:58.178Z,82.75
2017-10-03T11:24:58.159Z,82.75
2017-10-03T11:25:58.140Z,82.46
2017-10-03T11:26:58.113Z,81.6
2017-10-03T11:27:58.101Z,81.7
2017-10-03T11:28:58.077Z,81.51
2017-10-03T11:29:58.056Z,81.02
2017-10-03T11:30:58.046Z,80.83
2017-10-03T11:31:58.022Z,79.88
2017-10-03T11:32:58.004Z,79.88
2017-10-03T11:33:57.989Z,80.45
2017-10-03T11:34:57.964Z,80.35
2017-10-03T11:35:57.948Z,80.6
2017-10-03T11:36:57.915Z,80.74
2017-10-03T11:37:57.588Z,80.51
2017-10-03T11:38:57.877Z,79.83
2017-10-03T11:39:57.855Z,79.36
2017-10-03T11:40:57.828Z,80.41
2017-10-03T11:41:57.809Z,80.26
2017-10-03T11:42:57.788Z,80.45
2017-10-03T11:43:57.771Z,80.64
2017-10-03T11:44:57.761Z,80.45
2017-10-03T11:45:57.732Z,79.88
2017-10-03T11:46:57.703Z,79.59
2017-10-03T11:47:57.687Z,79.72
2017-10-03T11:48:57.667Z,78.28
2017-10-03T11:49:57.644Z,76.65
2017-10-03T11:50:57.623Z,75.6
2017-10-03T11:51:57.600Z,74.73
2017-10-03T11:52:57.583Z,75.4
2017-10-03T11:53:57.567Z,75.21
2017-10-03T11:54:57.250Z,74.44
2017-10-03T11:55:57.521Z,73
2017-10-03T11:56:57.498Z,72.91
2017-10-03T11:57:57.532Z,73
2017-10-03T11:58:57.472Z,73.14
2017-10-03T11:59:57.436Z,73.33
2017-10-03T12:00:57.419Z,74.44
2017-10-03T12:01:57.396Z,74.64
2017-10-03T12:02:57.381Z,74.64
2017-10-03T12:03:57.364Z,75.12
2017-10-03T12:04:57.354Z,74.93
2017-10-03T12:05:57.322Z,75.31
2017-10-03T12:06:57.303Z,75.7
2017-10-03T12:07:57.271Z,75.79
2017-10-03T12:08:57.265Z,75.79
2017-10-03T12:09:57.240Z,76.65
2017-10-03T12:10:57.220Z,76.75
2017-10-03T12:11:56.890Z,77.13
2017-10-03T12:12:57.182Z,77.23
2017-10-03T12:13:57.153Z,78.38
2017-10-03T12:14:56.834Z,78.53
2017-10-03T12:15:57.108Z,78.92
2017-10-03T12:16:57.143Z,79.49
2017-10-03T12:17:57.071Z,79.59
2017-10-03T12:18:57.047Z,79.83
2017-10-03T12:19:57.051Z,81.02
2017-10-03T12:20:57.017Z,81.27
2017-10-03T12:21:56.989Z,81.66
2017-10-03T12:22:56.975Z,81.85
2017-10-03T12:23:56.949Z,82.14
2017-10-03T12:24:56.980Z,82.04
2017-10-03T12:25:56.914Z,82.42
2017-10-03T12:26:56.578Z,82.52
2017-10-03T12:27:56.864Z,82.32
2017-10-03T12:28:56.845Z,83
2017-10-03T12:29:56.824Z,83.38
2017-10-03T12:30:56.805Z,83.19
2017-10-03T12:31:56.792Z,82.52
2017-10-03T12:32:56.820Z,83.48
2017-10-03T12:33:56.738Z,82.42
2017-10-03T12:34:56.728Z,83.09
2017-10-03T12:35:56.700Z,83.09
2017-10-03T12:36:56.680Z,83.09
2017-10-03T12:37:56.704Z,82.9
2017-10-03T12:38:56.637Z,83.38
2017-10-03T12:39:56.614Z,83.48
2017-10-03T12:40:56.289Z,83.58
2017-10-03T12:41:56.583Z,83.48
2017-10-03T12:42:56.552Z,83.67
2017-10-03T12:43:56.553Z,83.38
2017-10-03T12:44:56.514Z,83.48
2017-10-03T12:45:56.507Z,83.67
2017-10-03T12:46:56.479Z,83.29
2017-10-03T12:47:56.146Z,83.38
2017-10-03T12:48:56.433Z,83.38
2017-10-03T12:49:56.408Z,83.48
2017-10-03T12:50:56.383Z,83.38
2017-10-03T12:51:56.368Z,84.05
2017-10-03T12:52:56.346Z,84.34
2017-10-03T12:53:56.324Z,84.34
2017-10-03T12:54:56.302Z,84.25